sensor_id;sensor_type;location;lat;lon;timestamp;pressure;altitude;pressure_sealevel;temperature;humidity
62978;BME280;49073;42.352;23.808;2024-03-29T00:00:57;94457.91;;;10.54;55.25
62978;BME280;49073;42.352;23.808;2024-03-29T00:03:59;94465.72;;;10.43;56.26
62978;BME280;49073;42.352;23.808;2024-03-29T00:06:59;94462.28;;;10.66;55.74
62978;BME280;49073;42.352;23.808;2024-03-29T00:10:00;94462.84;;;10.55;55.57
62978;BME280;49073;42.352;23.808;2024-03-29T00:13:00;94464.66;;;10.47;55.56
62978;BME280;49073;42.352;23.808;2024-03-29T00:16:01;94466.94;;;10.49;56.79
62978;BME280;49073;42.352;23.808;2024-03-29T00:19:01;94460.59;;;10.57;55.40
62978;BME280;49073;42.352;23.808;2024-03-29T00:22:05;94462.88;;;10.09;57.19
62978;BME280;49073;42.352;23.808;2024-03-29T00:25:05;94471.00;;;9.96;57.84
62978;BME280;49073;42.352;23.808;2024-03-29T00:28:07;94461.31;;;9.84;59.18
62978;BME280;49073;42.352;23.808;2024-03-29T00:31:08;94451.72;;;9.80;59.57
62978;BME280;49073;42.352;23.808;2024-03-29T00:34:08;94453.63;;;9.79;59.77
62978;BME280;49073;42.352;23.808;2024-03-29T00:37:09;94457.22;;;9.67;59.95
62978;BME280;49073;42.352;23.808;2024-03-29T00:40:10;94458.44;;;10.16;57.82
62978;BME280;49073;42.352;23.808;2024-03-29T00:43:10;94467.53;;;10.15;58.55
62978;BME280;49073;42.352;23.808;2024-03-29T00:46:11;94485.59;;;10.26;58.07
62978;BME280;49073;42.352;23.808;2024-03-29T00:49:11;94476.50;;;10.03;58.62
62978;BME280;49073;42.352;23.808;2024-03-29T00:52:12;94480.94;;;9.99;59.53
62978;BME280;49073;42.352;23.808;2024-03-29T00:55:12;94479.16;;;9.84;60.12
62978;BME280;49073;42.352;23.808;2024-03-29T00:58:13;94481.59;;;9.50;61.26
62978;BME280;49073;42.352;23.808;2024-03-29T01:01:13;94478.09;;;9.45;61.26
62978;BME280;49073;42.352;23.808;2024-03-29T01:04:14;94480.06;;;9.49;61.19
62978;BME280;49073;42.352;23.808;2024-03-29T01:07:14;94474.34;;;9.70;60.07
62978;BME280;49073;42.352;23.808;2024-03-29T01:10:17;94471.47;;;9.79;60.72
62978;BME280;49073;42.352;23.808;2024-03-29T01:13:18;94483.38;;;9.85;60.39
62978;BME280;49073;42.352;23.808;2024-03-29T01:16:19;94488.22;;;9.79;60.05
62978;BME280;49073;42.352;23.808;2024-03-29T01:19:20;94492.34;;;9.77;60.46
62978;BME280;49073;42.352;23.808;2024-03-29T01:22:20;94486.41;;;9.44;62.01
62978;BME280;49073;42.352;23.808;2024-03-29T01:25:21;94492.75;;;9.79;60.69
62978;BME280;49073;42.352;23.808;2024-03-29T01:28:21;94495.84;;;9.81;60.40
62978;BME280;49073;42.352;23.808;2024-03-29T01:31:23;94494.75;;;9.62;61.21
62978;BME280;49073;42.352;23.808;2024-03-29T01:34:23;94501.53;;;9.59;61.55
62978;BME280;49073;42.352;23.808;2024-03-29T01:37:24;94507.91;;;9.55;61.89
62978;BME280;49073;42.352;23.808;2024-03-29T01:40:25;94500.41;;;9.60;61.28
62978;BME280;49073;42.352;23.808;2024-03-29T01:43:25;94488.56;;;9.38;62.01
62978;BME280;49073;42.352;23.808;2024-03-29T01:46:29;94503.06;;;9.21;63.34
62978;BME280;49073;42.352;23.808;2024-03-29T01:49:30;94498.22;;;9.07;62.87
62978;BME280;49073;42.352;23.808;2024-03-29T01:52:31;94496.78;;;8.94;62.70
62978;BME280;49073;42.352;23.808;2024-03-29T01:55:32;94502.03;;;8.74;64.43
62978;BME280;49073;42.352;23.808;2024-03-29T01:58:32;94503.50;;;8.71;64.36
62978;BME280;49073;42.352;23.808;2024-03-29T02:01:34;94494.69;;;8.67;64.68
62978;BME280;49073;42.352;23.808;2024-03-29T02:04:35;94498.19;;;8.87;64.14
62978;BME280;49073;42.352;23.808;2024-03-29T02:07:36;94492.66;;;9.52;61.19
62978;BME280;49073;42.352;23.808;2024-03-29T02:10:37;94503.53;;;10.06;58.75
62978;BME280;49073;42.352;23.808;2024-03-29T02:13:38;94518.81;;;10.32;57.46
62978;BME280;49073;42.352;23.808;2024-03-29T02:16:40;94510.72;;;10.48;57.08
62978;BME280;49073;42.352;23.808;2024-03-29T02:19:42;94505.78;;;10.50;56.85
62978;BME280;49073;42.352;23.808;2024-03-29T02:23:00;94517.44;;;10.65;55.85
62978;BME280;49073;42.352;23.808;2024-03-29T02:26:03;94523.16;;;10.64;55.92
62978;BME280;49073;42.352;23.808;2024-03-29T02:29:04;94525.66;;;10.80;55.59
62978;BME280;49073;42.352;23.808;2024-03-29T02:32:04;94530.69;;;10.85;54.90
62978;BME280;49073;42.352;23.808;2024-03-29T02:35:05;94540.19;;;10.82;55.14
62978;BME280;49073;42.352;23.808;2024-03-29T02:38:07;94538.69;;;10.85;55.36
62978;BME280;49073;42.352;23.808;2024-03-29T02:41:07;94552.78;;;10.85;55.79
62978;BME280;49073;42.352;23.808;2024-03-29T02:44:08;94562.53;;;10.74;56.63
62978;BME280;49073;42.352;23.808;2024-03-29T02:47:10;94559.31;;;10.41;60.83
62978;BME280;49073;42.352;23.808;2024-03-29T02:50:13;94563.22;;;10.28;59.91
62978;BME280;49073;42.352;23.808;2024-03-29T02:53:13;94586.38;;;10.24;59.75
62978;BME280;49073;42.352;23.808;2024-03-29T02:56:14;94591.63;;;10.20;59.83
62978;BME280;49073;42.352;23.808;2024-03-29T02:59:18;94596.13;;;9.96;59.38
62978;BME280;49073;42.352;23.808;2024-03-29T03:02:19;94615.22;;;9.63;60.08
62978;BME280;49073;42.352;23.808;2024-03-29T03:05:19;94612.63;;;9.46;61.37
62978;BME280;49073;42.352;23.808;2024-03-29T03:08:20;94628.09;;;9.09;62.45
62978;BME280;49073;42.352;23.808;2024-03-29T03:11:39;94625.47;;;8.93;63.34
62978;BME280;49073;42.352;23.808;2024-03-29T03:14:41;94630.00;;;8.76;64.17
62978;BME280;49073;42.352;23.808;2024-03-29T03:17:42;94631.13;;;8.91;63.74
62978;BME280;49073;42.352;23.808;2024-03-29T03:20:42;94640.53;;;8.72;64.45
62978;BME280;49073;42.352;23.808;2024-03-29T03:23:43;94645.09;;;9.04;63.50
62978;BME280;49073;42.352;23.808;2024-03-29T03:26:43;94666.84;;;9.26;63.32
62978;BME280;49073;42.352;23.808;2024-03-29T03:29:44;94662.75;;;9.44;61.81
62978;BME280;49073;42.352;23.808;2024-03-29T03:32:44;94669.06;;;9.56;61.50
62978;BME280;49073;42.352;23.808;2024-03-29T03:35:45;94677.91;;;9.60;61.89
62978;BME280;49073;42.352;23.808;2024-03-29T03:38:46;94673.56;;;9.71;60.54
62978;BME280;49073;42.352;23.808;2024-03-29T03:41:47;94694.25;;;9.78;60.55
62978;BME280;49073;42.352;23.808;2024-03-29T03:44:47;94703.25;;;9.73;62.14
62978;BME280;49073;42.352;23.808;2024-03-29T03:47:48;94694.72;;;9.48;62.35
62978;BME280;49073;42.352;23.808;2024-03-29T03:50:48;94706.91;;;9.33;63.00
62978;BME280;49073;42.352;23.808;2024-03-29T03:53:49;94702.88;;;9.07;64.08
62978;BME280;49073;42.352;23.808;2024-03-29T03:56:49;94708.63;;;8.93;64.13
62978;BME280;49073;42.352;23.808;2024-03-29T03:59:50;94702.72;;;9.00;64.34
62978;BME280;49073;42.352;23.808;2024-03-29T04:02:50;94708.53;;;9.22;63.89
62978;BME280;49073;42.352;23.808;2024-03-29T04:05:51;94718.66;;;9.32;62.99
62978;BME280;49073;42.352;23.808;2024-03-29T04:08:52;94717.91;;;9.48;62.58
62978;BME280;49073;42.352;23.808;2024-03-29T04:11:52;94709.41;;;9.58;61.80
62978;BME280;49073;42.352;23.808;2024-03-29T04:14:53;94710.16;;;9.58;61.73
62978;BME280;49073;42.352;23.808;2024-03-29T04:17:53;94718.00;;;9.87;60.22
62978;BME280;49073;42.352;23.808;2024-03-29T04:20:58;94710.16;;;9.94;60.00
62978;BME280;49073;42.352;23.808;2024-03-29T04:23:59;94707.75;;;10.05;59.18
62978;BME280;49073;42.352;23.808;2024-03-29T04:27:00;94718.09;;;10.10;59.02
62978;BME280;49073;42.352;23.808;2024-03-29T04:30:00;94730.00;;;9.97;60.91
62978;BME280;49073;42.352;23.808;2024-03-29T04:33:01;94726.84;;;9.91;60.22
62978;BME280;49073;42.352;23.808;2024-03-29T04:36:03;94731.38;;;10.26;58.80
62978;BME280;49073;42.352;23.808;2024-03-29T04:39:04;94727.31;;;10.32;58.35
62978;BME280;49073;42.352;23.808;2024-03-29T04:42:05;94732.84;;;10.24;59.30
62978;BME280;49073;42.352;23.808;2024-03-29T04:45:07;94740.91;;;10.08;60.76
62978;BME280;49073;42.352;23.808;2024-03-29T04:48:07;94747.69;;;9.89;62.19
62978;BME280;49073;42.352;23.808;2024-03-29T04:51:09;94751.31;;;9.97;60.26
62978;BME280;49073;42.352;23.808;2024-03-29T04:54:10;94765.28;;;10.10;60.24
62978;BME280;49073;42.352;23.808;2024-03-29T04:57:10;94769.13;;;10.12;60.91
62978;BME280;49073;42.352;23.808;2024-03-29T05:00:13;94768.66;;;10.26;59.56
62978;BME280;49073;42.352;23.808;2024-03-29T05:03:13;94769.41;;;10.27;59.58
62978;BME280;49073;42.352;23.808;2024-03-29T05:06:14;94777.22;;;10.36;59.69
62978;BME280;49073;42.352;23.808;2024-03-29T05:09:15;94782.97;;;10.38;60.05
62978;BME280;49073;42.352;23.808;2024-03-29T05:12:17;94788.06;;;10.43;59.95
62978;BME280;49073;42.352;23.808;2024-03-29T05:15:18;94776.41;;;10.51;59.32
62978;BME280;49073;42.352;23.808;2024-03-29T05:18:18;94792.00;;;10.69;58.85
62978;BME280;49073;42.352;23.808;2024-03-29T05:21:19;94808.19;;;10.80;59.14
62978;BME280;49073;42.352;23.808;2024-03-29T05:24:19;94804.44;;;11.00;57.42
62978;BME280;49073;42.352;23.808;2024-03-29T05:27:20;94802.84;;;11.19;56.42
62978;BME280;49073;42.352;23.808;2024-03-29T05:30:20;94799.25;;;11.31;55.68
62978;BME280;49073;42.352;23.808;2024-03-29T05:33:21;94801.53;;;11.52;54.97
62978;BME280;49073;42.352;23.808;2024-03-29T05:36:21;94812.72;;;11.61;55.33
62978;BME280;49073;42.352;23.808;2024-03-29T05:39:23;94821.63;;;11.69;53.94
62978;BME280;49073;42.352;23.808;2024-03-29T05:42:24;94816.53;;;11.84;54.08
62978;BME280;49073;42.352;23.808;2024-03-29T05:45:29;94805.13;;;11.87;53.59
62978;BME280;49073;42.352;23.808;2024-03-29T05:48:30;94814.50;;;12.00;53.76
62978;BME280;49073;42.352;23.808;2024-03-29T05:51:30;94827.03;;;12.23;53.89
62978;BME280;49073;42.352;23.808;2024-03-29T05:54:31;94821.06;;;12.33;52.33
62978;BME280;49073;42.352;23.808;2024-03-29T05:57:31;94825.81;;;12.44;51.92
62978;BME280;49073;42.352;23.808;2024-03-29T06:00:35;94826.03;;;12.62;51.85
62978;BME280;49073;42.352;23.808;2024-03-29T06:03:35;94821.25;;;12.75;51.56
62978;BME280;49073;42.352;23.808;2024-03-29T06:06:35;94823.25;;;12.82;51.93
62978;BME280;49073;42.352;23.808;2024-03-29T06:09:36;94822.50;;;12.85;51.02
62978;BME280;49073;42.352;23.808;2024-03-29T06:12:36;94821.63;;;13.07;50.63
62978;BME280;49073;42.352;23.808;2024-03-29T06:15:38;94822.09;;;13.17;50.07
62978;BME280;49073;42.352;23.808;2024-03-29T06:18:59;94816.94;;;13.35;50.01
62978;BME280;49073;42.352;23.808;2024-03-29T06:21:59;94834.34;;;13.52;50.09
62978;BME280;49073;42.352;23.808;2024-03-29T06:24:59;94839.94;;;13.77;48.62
62978;BME280;49073;42.352;23.808;2024-03-29T06:28:05;94848.72;;;13.74;49.54
62978;BME280;49073;42.352;23.808;2024-03-29T06:31:06;94834.19;;;13.79;48.73
62978;BME280;49073;42.352;23.808;2024-03-29T06:34:07;94840.03;;;13.88;48.87
62978;BME280;49073;42.352;23.808;2024-03-29T06:37:07;94843.63;;;14.07;48.90
62978;BME280;49073;42.352;23.808;2024-03-29T06:40:08;94863.53;;;14.09;47.50
62978;BME280;49073;42.352;23.808;2024-03-29T06:43:09;94868.63;;;14.22;48.33
62978;BME280;49073;42.352;23.808;2024-03-29T06:46:11;94872.63;;;14.50;46.43
62978;BME280;49073;42.352;23.808;2024-03-29T06:49:12;94867.69;;;14.55;46.64
62978;BME280;49073;42.352;23.808;2024-03-29T06:52:13;94881.53;;;14.68;46.05
62978;BME280;49073;42.352;23.808;2024-03-29T06:55:13;94861.59;;;14.62;46.25
62978;BME280;49073;42.352;23.808;2024-03-29T06:58:14;94875.94;;;14.88;45.38
62978;BME280;49073;42.352;23.808;2024-03-29T07:01:14;94885.97;;;15.02;45.61
62978;BME280;49073;42.352;23.808;2024-03-29T07:04:15;94889.78;;;15.01;45.60
62978;BME280;49073;42.352;23.808;2024-03-29T07:07:15;94891.75;;;15.08;44.98
62978;BME280;49073;42.352;23.808;2024-03-29T07:10:16;94880.28;;;15.18;45.90
62978;BME280;49073;42.352;23.808;2024-03-29T07:13:16;94881.09;;;15.26;44.67
62978;BME280;49073;42.352;23.808;2024-03-29T07:16:17;94891.09;;;15.33;44.41
62978;BME280;49073;42.352;23.808;2024-03-29T07:19:17;94894.56;;;15.40;44.53
62978;BME280;49073;42.352;23.808;2024-03-29T07:22:19;94898.06;;;15.55;44.82
62978;BME280;49073;42.352;23.808;2024-03-29T07:25:20;94880.03;;;15.60;44.20
62978;BME280;49073;42.352;23.808;2024-03-29T07:28:20;94885.44;;;15.70;43.89
62978;BME280;49073;42.352;23.808;2024-03-29T07:31:21;94899.63;;;15.78;43.39
62978;BME280;49073;42.352;23.808;2024-03-29T07:34:21;94891.19;;;15.83;43.23
62978;BME280;49073;42.352;23.808;2024-03-29T07:37:22;94882.06;;;15.99;43.01
62978;BME280;49073;42.352;23.808;2024-03-29T07:40:22;94874.38;;;16.08;43.16
62978;BME280;49073;42.352;23.808;2024-03-29T07:43:23;94884.38;;;16.22;42.22
62978;BME280;49073;42.352;23.808;2024-03-29T07:46:23;94878.22;;;16.22;41.13
62978;BME280;49073;42.352;23.808;2024-03-29T07:49:24;94878.97;;;16.40;42.04
62978;BME280;49073;42.352;23.808;2024-03-29T07:52:24;94880.88;;;16.51;40.36
62978;BME280;49073;42.352;23.808;2024-03-29T07:55:25;94887.41;;;16.57;41.22
62978;BME280;49073;42.352;23.808;2024-03-29T07:58:25;94890.47;;;16.63;41.10
62978;BME280;49073;42.352;23.808;2024-03-29T08:01:26;94891.94;;;17.00;42.17
62978;BME280;49073;42.352;23.808;2024-03-29T08:04:27;94880.78;;;17.01;40.03
62978;BME280;49073;42.352;23.808;2024-03-29T08:07:28;94870.75;;;17.09;39.16
62978;BME280;49073;42.352;23.808;2024-03-29T08:10:31;94884.56;;;17.22;40.03
62978;BME280;49073;42.352;23.808;2024-03-29T08:13:32;94877.28;;;17.15;39.06
62978;BME280;49073;42.352;23.808;2024-03-29T08:16:33;94881.47;;;17.27;39.72
62978;BME280;49073;42.352;23.808;2024-03-29T08:19:33;94882.56;;;17.44;39.22
62978;BME280;49073;42.352;23.808;2024-03-29T08:22:34;94874.06;;;17.46;39.96
62978;BME280;49073;42.352;23.808;2024-03-29T08:25:35;94882.44;;;17.66;39.71
62978;BME280;49073;42.352;23.808;2024-03-29T08:28:35;94878.19;;;17.69;40.12
62978;BME280;49073;42.352;23.808;2024-03-29T08:31:37;94877.78;;;17.67;39.06
62978;BME280;49073;42.352;23.808;2024-03-29T08:34:38;94886.19;;;17.80;40.31
62978;BME280;49073;42.352;23.808;2024-03-29T08:37:39;94884.66;;;17.79;38.99
62978;BME280;49073;42.352;23.808;2024-03-29T08:40:39;94861.22;;;17.72;39.58
62978;BME280;49073;42.352;23.808;2024-03-29T08:43:43;94868.91;;;17.77;38.61
62978;BME280;49073;42.352;23.808;2024-03-29T08:46:44;94870.69;;;17.98;39.79
62978;BME280;49073;42.352;23.808;2024-03-29T08:49:45;94874.34;;;18.23;40.45
62978;BME280;49073;42.352;23.808;2024-03-29T08:52:45;94860.53;;;18.17;39.61
62978;BME280;49073;42.352;23.808;2024-03-29T08:55:46;94859.25;;;18.36;40.00
62978;BME280;49073;42.352;23.808;2024-03-29T08:58:48;94846.03;;;18.45;37.76
62978;BME280;49073;42.352;23.808;2024-03-29T09:01:49;94852.25;;;18.39;37.42
62978;BME280;49073;42.352;23.808;2024-03-29T09:04:49;94850.19;;;18.57;40.00
62978;BME280;49073;42.352;23.808;2024-03-29T09:07:50;94855.06;;;18.70;39.06
62978;BME280;49073;42.352;23.808;2024-03-29T09:10:51;94839.50;;;18.81;37.92
62978;BME280;49073;42.352;23.808;2024-03-29T09:13:51;94838.56;;;18.99;37.27
62978;BME280;49073;42.352;23.808;2024-03-29T09:16:54;94834.47;;;19.18;37.40
62978;BME280;49073;42.352;23.808;2024-03-29T09:19:54;94828.41;;;19.41;37.52
62978;BME280;49073;42.352;23.808;2024-03-29T09:22:55;94825.34;;;19.67;36.85
62978;BME280;49073;42.352;23.808;2024-03-29T09:25:56;94824.72;;;19.83;34.94
62978;BME280;49073;42.352;23.808;2024-03-29T09:28:57;94816.25;;;19.81;35.67
62978;BME280;49073;42.352;23.808;2024-03-29T09:31:57;94820.19;;;20.03;34.55
62978;BME280;49073;42.352;23.808;2024-03-29T09:34:58;94810.25;;;20.20;34.52
62978;BME280;49073;42.352;23.808;2024-03-29T09:38:00;94792.75;;;20.25;34.17
62978;BME280;49073;42.352;23.808;2024-03-29T09:41:10;94795.72;;;20.34;35.13
62978;BME280;49073;42.352;23.808;2024-03-29T09:44:14;94788.06;;;20.49;35.92
62978;BME280;49073;42.352;23.808;2024-03-29T09:47:17;94785.84;;;20.44;35.38
62978;BME280;49073;42.352;23.808;2024-03-29T09:50:18;94784.81;;;20.38;35.37
62978;BME280;49073;42.352;23.808;2024-03-29T09:53:19;94781.13;;;20.48;35.84
62978;BME280;49073;42.352;23.808;2024-03-29T09:56:22;94768.03;;;20.67;35.93
62978;BME280;49073;42.352;23.808;2024-03-29T09:59:23;94767.25;;;21.07;36.26
62978;BME280;49073;42.352;23.808;2024-03-29T10:02:31;94769.09;;;21.30;34.76
62978;BME280;49073;42.352;23.808;2024-03-29T10:05:31;94758.09;;;21.38;34.85
62978;BME280;49073;42.352;23.808;2024-03-29T10:08:32;94763.44;;;21.58;34.12
62978;BME280;49073;42.352;23.808;2024-03-29T10:11:33;94757.19;;;21.94;34.97
62978;BME280;49073;42.352;23.808;2024-03-29T10:14:49;94753.78;;;22.06;34.10
62978;BME280;49073;42.352;23.808;2024-03-29T10:17:50;94743.84;;;22.16;33.72
62978;BME280;49073;42.352;23.808;2024-03-29T10:21:04;94748.47;;;21.86;33.56
62978;BME280;49073;42.352;23.808;2024-03-29T10:24:13;94745.59;;;21.93;32.87
62978;BME280;49073;42.352;23.808;2024-03-29T10:27:14;94743.63;;;21.61;31.43
62978;BME280;49073;42.352;23.808;2024-03-29T10:30:15;94735.75;;;21.83;33.05
62978;BME280;49073;42.352;23.808;2024-03-29T10:33:19;94732.28;;;22.29;32.33
62978;BME280;49073;42.352;23.808;2024-03-29T10:36:20;94740.41;;;22.45;33.00
62978;BME280;49073;42.352;23.808;2024-03-29T10:39:20;94739.25;;;22.59;32.27
62978;BME280;49073;42.352;23.808;2024-03-29T10:42:21;94734.09;;;22.91;34.12
62978;BME280;49073;42.352;23.808;2024-03-29T10:45:25;94735.81;;;22.85;32.23
62978;BME280;49073;42.352;23.808;2024-03-29T10:48:27;94730.88;;;22.66;31.71
62978;BME280;49073;42.352;23.808;2024-03-29T10:51:28;94738.38;;;22.62;32.88
62978;BME280;49073;42.352;23.808;2024-03-29T10:54:31;94722.75;;;22.66;32.39
62978;BME280;49073;42.352;23.808;2024-03-29T10:57:42;94719.03;;;22.47;32.17
62978;BME280;49073;42.352;23.808;2024-03-29T11:00:47;94718.69;;;22.45;32.27
62978;BME280;49073;42.352;23.808;2024-03-29T11:03:54;94728.66;;;22.78;32.26
62978;BME280;49073;42.352;23.808;2024-03-29T11:06:58;94724.31;;;22.93;33.78
62978;BME280;49073;42.352;23.808;2024-03-29T11:10:01;94709.47;;;23.24;30.97
62978;BME280;49073;42.352;23.808;2024-03-29T11:16:24;94716.72;;;23.53;30.95
62978;BME280;49073;42.352;23.808;2024-03-29T11:19:25;94709.09;;;23.74;30.55
62978;BME280;49073;42.352;23.808;2024-03-29T11:22:27;94710.78;;;23.45;31.78
62978;BME280;49073;42.352;23.808;2024-03-29T11:25:43;94716.22;;;23.32;30.72
62978;BME280;49073;42.352;23.808;2024-03-29T11:28:52;94706.16;;;23.55;29.24
62978;BME280;49073;42.352;23.808;2024-03-29T11:31:58;94710.63;;;23.75;29.68
62978;BME280;49073;42.352;23.808;2024-03-29T11:34:59;94708.13;;;23.67;28.99
62978;BME280;49073;42.352;23.808;2024-03-29T11:38:00;94703.41;;;23.81;30.58
62978;BME280;49073;42.352;23.808;2024-03-29T11:44:05;94696.00;;;23.81;28.99
62978;BME280;49073;42.352;23.808;2024-03-29T11:47:09;94693.03;;;24.02;29.49
62978;BME280;49073;42.352;23.808;2024-03-29T11:50:11;94694.16;;;23.78;29.82
62978;BME280;49073;42.352;23.808;2024-03-29T11:53:13;94704.56;;;23.45;29.28
62978;BME280;49073;42.352;23.808;2024-03-29T11:56:13;94694.09;;;23.56;29.47
62978;BME280;49073;42.352;23.808;2024-03-29T11:59:14;94692.56;;;23.55;29.58
62978;BME280;49073;42.352;23.808;2024-03-29T12:02:17;94678.03;;;23.36;28.99
62978;BME280;49073;42.352;23.808;2024-03-29T12:05:18;94674.19;;;23.59;29.26
62978;BME280;49073;42.352;23.808;2024-03-29T12:08:19;94685.50;;;23.71;28.97
62978;BME280;49073;42.352;23.808;2024-03-29T12:11:20;94686.47;;;23.64;28.61
62978;BME280;49073;42.352;23.808;2024-03-29T12:14:20;94680.63;;;24.01;29.89
62978;BME280;49073;42.352;23.808;2024-03-29T12:17:22;94676.13;;;24.07;29.36
62978;BME280;49073;42.352;23.808;2024-03-29T12:20:23;94674.50;;;23.96;28.63
62978;BME280;49073;42.352;23.808;2024-03-29T12:23:23;94670.63;;;23.36;28.52
62978;BME280;49073;42.352;23.808;2024-03-29T12:26:24;94669.81;;;23.75;28.60
62978;BME280;49073;42.352;23.808;2024-03-29T12:29:27;94669.25;;;24.37;29.04
62978;BME280;49073;42.352;23.808;2024-03-29T12:32:28;94653.47;;;24.32;28.04
62978;BME280;49073;42.352;23.808;2024-03-29T12:35:30;94644.50;;;24.00;27.75
62978;BME280;49073;42.352;23.808;2024-03-29T12:38:32;94646.66;;;24.28;27.79
62978;BME280;49073;42.352;23.808;2024-03-29T12:41:33;94659.13;;;24.38;28.20
62978;BME280;49073;42.352;23.808;2024-03-29T12:44:35;94649.31;;;24.18;28.67
62978;BME280;49073;42.352;23.808;2024-03-29T12:47:36;94647.66;;;24.43;29.94
62978;BME280;49073;42.352;23.808;2024-03-29T12:50:37;94658.91;;;24.54;28.06
62978;BME280;49073;42.352;23.808;2024-03-29T12:53:39;94657.59;;;24.37;28.42
62978;BME280;49073;42.352;23.808;2024-03-29T12:56:40;94647.69;;;24.52;28.47
62978;BME280;49073;42.352;23.808;2024-03-29T12:59:42;94660.31;;;24.81;28.96
62978;BME280;49073;42.352;23.808;2024-03-29T13:02:44;94654.00;;;24.72;28.34
62978;BME280;49073;42.352;23.808;2024-03-29T13:05:44;94650.56;;;24.49;27.49
62978;BME280;49073;42.352;23.808;2024-03-29T13:08:45;94640.38;;;24.72;28.11
62978;BME280;49073;42.352;23.808;2024-03-29T13:11:45;94640.31;;;24.84;27.38
62978;BME280;49073;42.352;23.808;2024-03-29T13:14:46;94646.16;;;24.74;27.88
62978;BME280;49073;42.352;23.808;2024-03-29T13:17:47;94649.84;;;24.80;27.55
62978;BME280;49073;42.352;23.808;2024-03-29T13:20:49;94639.69;;;24.80;29.08
62978;BME280;49073;42.352;23.808;2024-03-29T13:23:49;94643.69;;;24.98;28.47
62978;BME280;49073;42.352;23.808;2024-03-29T13:26:50;94642.66;;;24.73;26.56
62978;BME280;49073;42.352;23.808;2024-03-29T13:29:51;94647.78;;;24.71;28.33
62978;BME280;49073;42.352;23.808;2024-03-29T13:32:53;94652.88;;;24.82;27.90
62978;BME280;49073;42.352;23.808;2024-03-29T13:35:54;94646.25;;;24.70;29.37
62978;BME280;49073;42.352;23.808;2024-03-29T13:38:57;94648.06;;;24.41;27.43
62978;BME280;49073;42.352;23.808;2024-03-29T13:41:57;94645.25;;;24.45;28.65
62978;BME280;49073;42.352;23.808;2024-03-29T13:44:58;94644.41;;;24.35;28.48
62978;BME280;49073;42.352;23.808;2024-03-29T13:47:59;94644.34;;;24.48;28.64
62978;BME280;49073;42.352;23.808;2024-03-29T13:50:59;94641.94;;;24.50;27.96
62978;BME280;49073;42.352;23.808;2024-03-29T13:54:00;94647.22;;;24.22;27.44
62978;BME280;49073;42.352;23.808;2024-03-29T13:57:00;94653.66;;;24.38;28.97
62978;BME280;49073;42.352;23.808;2024-03-29T14:00:02;94653.41;;;24.23;28.54
62978;BME280;49073;42.352;23.808;2024-03-29T14:03:05;94649.69;;;24.30;28.39
62978;BME280;49073;42.352;23.808;2024-03-29T14:06:06;94644.72;;;24.15;28.03
62978;BME280;49073;42.352;23.808;2024-03-29T14:09:07;94648.22;;;24.16;28.47
62978;BME280;49073;42.352;23.808;2024-03-29T14:12:08;94644.63;;;24.19;28.72
62978;BME280;49073;42.352;23.808;2024-03-29T14:15:08;94639.63;;;24.17;28.54
62978;BME280;49073;42.352;23.808;2024-03-29T14:18:09;94648.53;;;24.18;28.04
62978;BME280;49073;42.352;23.808;2024-03-29T14:21:10;94645.72;;;24.21;28.45
62978;BME280;49073;42.352;23.808;2024-03-29T14:24:10;94641.78;;;24.00;28.91
62978;BME280;49073;42.352;23.808;2024-03-29T14:27:11;94646.03;;;23.88;29.19
62978;BME280;49073;42.352;23.808;2024-03-29T14:30:13;94648.84;;;23.85;28.50
62978;BME280;49073;42.352;23.808;2024-03-29T14:33:14;94648.22;;;23.80;28.79
62978;BME280;49073;42.352;23.808;2024-03-29T14:36:14;94645.00;;;23.73;29.46
62978;BME280;49073;42.352;23.808;2024-03-29T14:39:17;94641.63;;;23.68;29.35
62978;BME280;49073;42.352;23.808;2024-03-29T14:42:19;94643.47;;;23.72;29.60
62978;BME280;49073;42.352;23.808;2024-03-29T14:45:22;94641.25;;;23.57;29.13
62978;BME280;49073;42.352;23.808;2024-03-29T14:48:24;94638.41;;;23.48;29.93
62978;BME280;49073;42.352;23.808;2024-03-29T14:51:25;94634.63;;;23.32;30.08
62978;BME280;49073;42.352;23.808;2024-03-29T14:54:28;94637.59;;;23.25;30.52
62978;BME280;49073;42.352;23.808;2024-03-29T14:57:29;94643.34;;;23.27;29.53
62978;BME280;49073;42.352;23.808;2024-03-29T15:00:30;94644.22;;;23.24;30.65
62978;BME280;49073;42.352;23.808;2024-03-29T15:03:30;94644.22;;;23.24;29.16
62978;BME280;49073;42.352;23.808;2024-03-29T15:06:32;94643.03;;;23.25;28.95
62978;BME280;49073;42.352;23.808;2024-03-29T15:09:34;94649.00;;;23.20;29.70
62978;BME280;49073;42.352;23.808;2024-03-29T15:12:41;94653.56;;;23.10;30.14
62978;BME280;49073;42.352;23.808;2024-03-29T15:15:41;94657.91;;;23.07;30.02
62978;BME280;49073;42.352;23.808;2024-03-29T15:18:42;94655.53;;;23.09;31.21
62978;BME280;49073;42.352;23.808;2024-03-29T15:21:43;94661.28;;;22.86;30.91
62978;BME280;49073;42.352;23.808;2024-03-29T15:24:44;94659.94;;;22.64;32.41
62978;BME280;49073;42.352;23.808;2024-03-29T15:27:44;94651.03;;;22.51;32.25
62978;BME280;49073;42.352;23.808;2024-03-29T15:31:14;94658.84;;;22.19;33.84
62978;BME280;49073;42.352;23.808;2024-03-29T15:34:21;94658.38;;;22.08;33.77
62978;BME280;49073;42.352;23.808;2024-03-29T15:37:22;94656.78;;;21.94;34.44
62978;BME280;49073;42.352;23.808;2024-03-29T15:40:25;94663.53;;;21.73;34.09
62978;BME280;49073;42.352;23.808;2024-03-29T15:43:27;94667.75;;;21.74;34.51
62978;BME280;49073;42.352;23.808;2024-03-29T15:46:29;94662.34;;;21.57;34.65
62978;BME280;49073;42.352;23.808;2024-03-29T15:49:29;94661.94;;;21.59;34.95
62978;BME280;49073;42.352;23.808;2024-03-29T15:55:30;94657.28;;;21.43;35.12
62978;BME280;49073;42.352;23.808;2024-03-29T15:58:31;94660.34;;;21.28;34.98
62978;BME280;49073;42.352;23.808;2024-03-29T16:01:32;94658.31;;;21.32;34.75